createdAt,value
2023-06-16T00:01:16.334Z,20.91
2023-06-16T00:03:45.256Z,20.95
2023-06-16T00:06:15.701Z,20.96
2023-06-16T00:08:48.259Z,20.81
2023-06-16T00:11:16.880Z,20.86
2023-06-16T00:13:46.512Z,20.89
2023-06-16T00:16:14.649Z,20.95
2023-06-16T00:18:45.407Z,20.91
2023-06-16T00:21:15.467Z,20.76
2023-06-16T00:23:43.030Z,20.84
2023-06-16T00:26:10.323Z,20.83
2023-06-16T00:28:40.313Z,20.74
2023-06-16T00:31:07.467Z,20.70
2023-06-16T00:33:36.943Z,20.58
2023-06-16T00:36:04.351Z,20.59
2023-06-16T00:38:31.677Z,20.62
2023-06-16T00:40:58.851Z,20.66
2023-06-16T00:43:26.015Z,20.70
2023-06-16T00:45:53.502Z,20.73
2023-06-16T00:48:22.263Z,20.72
2023-06-16T00:50:49.902Z,20.65
2023-06-16T00:53:18.190Z,20.51
2023-06-16T00:55:45.730Z,20.43
2023-06-16T00:58:13.029Z,20.54
2023-06-16T01:00:40.208Z,20.61
2023-06-16T01:03:10.201Z,20.55
2023-06-16T01:05:38.105Z,20.60
2023-06-16T01:08:18.065Z,20.66
2023-06-16T01:11:18.663Z,20.60
2023-06-16T01:14:23.746Z,20.57
2023-06-16T01:16:54.936Z,20.60
2023-06-16T01:19:38.809Z,20.62
2023-06-16T01:22:41.277Z,20.64
2023-06-16T01:25:15.299Z,20.57
2023-06-16T01:27:48.991Z,20.53
2023-06-16T01:30:17.947Z,20.39
2023-06-16T01:32:48.592Z,20.51
2023-06-16T01:35:17.445Z,20.56
2023-06-16T01:37:46.173Z,20.48
2023-06-16T01:40:15.078Z,20.48
2023-06-16T01:42:45.315Z,20.48
2023-06-16T01:45:15.750Z,20.56
2023-06-16T01:47:45.287Z,20.61
2023-06-16T01:50:13.729Z,20.57
2023-06-16T01:52:40.975Z,20.49
2023-06-16T01:55:10.817Z,20.56
2023-06-16T01:57:39.668Z,20.53
2023-06-16T02:00:28.703Z,20.57
2023-06-16T02:03:10.066Z,20.50
2023-06-16T02:05:42.126Z,20.63
2023-06-16T02:08:10.584Z,20.64
2023-06-16T02:10:38.628Z,20.59
2023-06-16T02:13:06.339Z,20.58
2023-06-16T02:15:33.776Z,20.51
2023-06-16T02:18:01.258Z,20.41
2023-06-16T02:20:28.861Z,20.47
2023-06-16T02:22:56.264Z,20.44
2023-06-16T02:25:23.758Z,20.48
2023-06-16T02:27:50.971Z,20.68
2023-06-16T02:30:18.871Z,20.71
2023-06-16T02:33:01.847Z,20.45
2023-06-16T02:35:31.626Z,20.30
2023-06-16T02:37:58.831Z,20.42
2023-06-16T02:40:28.715Z,20.69
2023-06-16T02:42:56.125Z,20.98
2023-06-16T02:45:23.290Z,20.99
2023-06-16T02:47:50.613Z,20.78
2023-06-16T02:50:18.321Z,20.76
2023-06-16T02:52:46.102Z,20.84
2023-06-16T02:55:17.110Z,20.90
2023-06-16T02:57:53.332Z,20.80
2023-06-16T03:00:21.028Z,20.98
2023-06-16T03:03:23.897Z,21.06
2023-06-16T03:06:03.548Z,21.30
2023-06-16T03:08:33.567Z,21.50
2023-06-16T03:11:00.810Z,21.77
2023-06-16T03:13:34.381Z,22.59
2023-06-16T03:16:02.124Z,23.82
2023-06-16T03:18:29.874Z,23.68
2023-06-16T03:20:59.207Z,22.95
2023-06-16T03:23:30.969Z,22.49
2023-06-16T03:25:59.727Z,22.29
2023-06-16T03:28:42.367Z,22.12
2023-06-16T03:31:11.996Z,22.14
2023-06-16T03:33:44.145Z,22.28
2023-06-16T03:36:13.207Z,22.91
2023-06-16T03:38:42.922Z,22.70
2023-06-16T03:41:10.187Z,22.45
2023-06-16T03:43:37.790Z,22.40
2023-06-16T03:46:05.146Z,22.43
2023-06-16T03:48:33.248Z,22.40
2023-06-16T03:51:03.055Z,22.42
2023-06-16T03:53:30.722Z,22.42
2023-06-16T03:55:59.223Z,22.29
2023-06-16T03:58:26.987Z,22.25
2023-06-16T04:00:54.171Z,22.32
2023-06-16T04:03:23.352Z,22.31
2023-06-16T04:05:51.074Z,22.21
2023-06-16T04:08:18.590Z,22.31
2023-06-16T04:10:45.878Z,22.39
2023-06-16T04:13:14.025Z,22.53
2023-06-16T04:15:43.660Z,22.43
2023-06-16T04:18:15.276Z,22.45
2023-06-16T04:20:42.554Z,22.60
2023-06-16T04:23:10.697Z,22.72
2023-06-16T04:25:39.410Z,22.74
2023-06-16T04:28:07.475Z,22.68
2023-06-16T04:30:34.806Z,22.97
2023-06-16T04:33:03.778Z,23.44
2023-06-16T04:35:35.073Z,23.44
2023-06-16T04:38:07.892Z,23.29
2023-06-16T04:40:37.597Z,23.08
2023-06-16T04:43:05.847Z,23.12
2023-06-16T04:45:33.717Z,23.27
2023-06-16T04:48:01.275Z,23.64
2023-06-16T04:50:30.068Z,23.67
2023-06-16T04:52:57.832Z,23.74
2023-06-16T04:55:25.230Z,23.78
2023-06-16T04:57:55.208Z,23.88
2023-06-16T05:00:22.881Z,23.80
2023-06-16T05:02:50.438Z,23.83
2023-06-16T05:05:19.932Z,23.60
2023-06-16T05:07:49.411Z,23.86
2023-06-16T05:10:17.061Z,24.18
2023-06-16T05:12:44.852Z,24.36
2023-06-16T05:15:12.062Z,24.21
2023-06-16T05:17:40.023Z,24.07
2023-06-16T05:20:09.420Z,24.27
2023-06-16T05:22:40.040Z,24.35
2023-06-16T05:25:08.547Z,24.53
2023-06-16T05:27:35.785Z,24.84
2023-06-16T05:30:03.849Z,25.17
2023-06-16T05:32:34.872Z,24.96
2023-06-16T05:35:04.809Z,24.37
2023-06-16T05:37:32.994Z,24.11
2023-06-16T05:40:03.019Z,24.38
2023-06-16T05:42:32.556Z,24.32
2023-06-16T05:45:00.140Z,24.34
2023-06-16T05:47:29.636Z,24.64
2023-06-16T05:49:58.579Z,24.86
2023-06-16T05:52:26.413Z,24.75
2023-06-16T05:54:53.926Z,24.97
2023-06-16T05:57:31.555Z,25.08
2023-06-16T05:59:58.783Z,24.99
2023-06-16T06:02:26.503Z,24.86
2023-06-16T06:04:54.388Z,24.94
2023-06-16T06:07:21.798Z,25.11
2023-06-16T06:09:49.985Z,25.32
2023-06-16T06:12:18.562Z,25.27
2023-06-16T06:14:45.719Z,25.02
2023-06-16T06:17:12.958Z,25.05
2023-06-16T06:19:40.218Z,25.08
2023-06-16T06:22:08.967Z,25.19
2023-06-16T06:24:38.745Z,25.28
2023-06-16T06:27:07.814Z,25.08
2023-06-16T06:29:35.000Z,25.48
2023-06-16T06:32:02.286Z,25.71
2023-06-16T06:34:29.514Z,25.55
2023-06-16T06:36:57.052Z,25.33
2023-06-16T06:39:24.211Z,25.53
2023-06-16T06:41:51.632Z,25.71
2023-06-16T06:44:24.234Z,25.74
2023-06-16T06:46:52.319Z,25.68
2023-06-16T06:49:21.838Z,26.06
2023-06-16T06:51:49.024Z,26.40
2023-06-16T06:54:16.220Z,25.90
2023-06-16T06:56:43.401Z,26.23
2023-06-16T06:59:10.561Z,25.83
2023-06-16T07:01:39.064Z,25.90
2023-06-16T07:04:06.583Z,25.93
2023-06-16T07:06:34.223Z,26.25
2023-06-16T07:09:01.786Z,26.47
2023-06-16T07:11:29.208Z,26.07
2023-06-16T07:13:56.422Z,25.66
2023-06-16T07:16:23.674Z,25.64
2023-06-16T07:18:51.614Z,25.22
2023-06-16T07:21:18.850Z,25.24
2023-06-16T07:23:46.125Z,25.19
2023-06-16T07:26:13.481Z,25.19
2023-06-16T07:28:42.265Z,25.45
2023-06-16T07:31:09.502Z,25.56
2023-06-16T07:33:36.805Z,25.77
2023-06-16T07:36:04.686Z,25.51
2023-06-16T07:38:31.971Z,25.65
2023-06-16T07:40:59.213Z,25.99
2023-06-16T07:43:26.470Z,26.20
2023-06-16T07:45:53.717Z,26.02
2023-06-16T07:48:20.959Z,26.32
2023-06-16T07:50:48.958Z,26.37
2023-06-16T07:53:17.108Z,26.51
2023-06-16T07:55:44.831Z,26.26
2023-06-16T07:58:12.054Z,26.60
2023-06-16T08:00:39.366Z,26.29
2023-06-16T08:03:07.692Z,26.25
2023-06-16T08:05:35.063Z,26.05
2023-06-16T08:08:02.900Z,26.06
2023-06-16T08:10:30.355Z,26.17
2023-06-16T08:12:57.763Z,26.57
2023-06-16T08:15:25.307Z,26.32
2023-06-16T08:17:52.763Z,26.36
2023-06-16T08:20:20.476Z,26.64
2023-06-16T08:22:48.043Z,26.52
2023-06-16T08:25:15.626Z,26.70
2023-06-16T08:27:42.869Z,27.09
2023-06-16T08:30:11.498Z,26.88
2023-06-16T08:32:40.130Z,26.99
2023-06-16T08:35:09.113Z,27.04
2023-06-16T08:37:37.135Z,27.55
2023-06-16T08:40:12.645Z,26.95
2023-06-16T08:42:42.365Z,26.81
2023-06-16T08:45:11.296Z,27.26
2023-06-16T08:47:41.540Z,27.74
2023-06-16T08:50:10.126Z,28.16
2023-06-16T08:52:44.472Z,28.27
2023-06-16T08:55:15.637Z,28.08
2023-06-16T08:57:48.707Z,27.69
2023-06-16T09:00:18.405Z,27.46
2023-06-16T09:02:57.964Z,27.42
2023-06-16T09:05:26.795Z,26.89
2023-06-16T09:07:54.551Z,26.54
2023-06-16T09:10:22.417Z,26.17
2023-06-16T09:12:54.417Z,25.92
2023-06-16T09:15:22.766Z,26.02
2023-06-16T09:17:51.177Z,26.38
2023-06-16T09:20:20.247Z,26.12
2023-06-16T09:22:58.166Z,26.31
2023-06-16T09:25:25.496Z,26.52
2023-06-16T09:27:54.217Z,26.48
2023-06-16T09:30:26.634Z,26.11
2023-06-16T09:32:59.333Z,26.48
2023-06-16T09:35:29.061Z,27.01
2023-06-16T09:38:01.946Z,26.71
2023-06-16T09:40:33.574Z,26.71
2023-06-16T09:43:05.280Z,26.42
2023-06-16T09:45:33.520Z,26.41
2023-06-16T09:48:05.529Z,26.54
2023-06-16T09:50:34.339Z,26.48
2023-06-16T09:53:06.231Z,26.54
2023-06-16T09:55:38.739Z,27.01
2023-06-16T09:58:06.547Z,27.27
2023-06-16T10:00:34.540Z,27.08
2023-06-16T10:03:03.664Z,27.00
2023-06-16T10:05:36.400Z,27.21
2023-06-16T10:08:05.885Z,27.16
2023-06-16T10:10:34.975Z,27.28
2023-06-16T10:13:07.436Z,27.10
2023-06-16T10:15:43.093Z,27.29
2023-06-16T10:18:14.306Z,27.39
2023-06-16T10:20:42.325Z,27.84
2023-06-16T10:23:10.622Z,27.59
2023-06-16T10:25:41.636Z,27.42
2023-06-16T10:28:14.910Z,27.19
2023-06-16T10:30:45.383Z,26.88
2023-06-16T10:33:25.645Z,27.11
2023-06-16T10:38:37.423Z,26.75
2023-06-16T10:41:07.622Z,26.66
2023-06-16T10:43:35.151Z,26.61
2023-06-16T10:46:20.103Z,26.66
2023-06-16T10:49:05.933Z,26.87
2023-06-16T10:52:05.967Z,27.22
2023-06-16T10:54:38.400Z,27.47
2023-06-16T11:00:26.674Z,27.30
2023-06-16T11:02:58.780Z,27.11
2023-06-16T11:05:40.293Z,27.30
2023-06-16T11:08:14.460Z,27.20
2023-06-16T11:11:04.454Z,27.44
2023-06-16T11:13:35.333Z,27.21
2023-06-16T11:16:03.884Z,27.37
2023-06-16T11:18:35.206Z,27.23
2023-06-16T11:21:13.479Z,27.05
2023-06-16T11:23:45.587Z,26.87
2023-06-16T11:26:16.941Z,27.24
2023-06-16T11:28:44.746Z,27.60
2023-06-16T11:31:13.710Z,27.70
2023-06-16T11:33:42.118Z,27.80
2023-06-16T11:36:19.710Z,27.34
2023-06-16T11:38:49.314Z,27.46
2023-06-16T11:41:21.324Z,27.70
2023-06-16T11:43:52.361Z,27.96
2023-06-16T11:46:24.519Z,27.88
2023-06-16T11:48:53.086Z,27.68
2023-06-16T11:51:21.161Z,27.58
2023-06-16T11:53:48.865Z,27.70
2023-06-16T11:56:18.233Z,27.55
2023-06-16T11:58:54.413Z,27.71
2023-06-16T12:01:25.789Z,27.18
2023-06-16T12:04:03.583Z,27.13
2023-06-16T12:06:33.840Z,26.96
2023-06-16T12:09:01.465Z,27.11
2023-06-16T12:11:32.264Z,27.18
2023-06-16T12:14:02.284Z,27.36
2023-06-16T12:16:29.894Z,27.53
2023-06-16T12:18:58.988Z,27.63
2023-06-16T12:21:29.459Z,27.45
2023-06-16T12:24:01.423Z,27.46
2023-06-16T12:26:33.431Z,27.33
2023-06-16T12:29:10.992Z,27.30
2023-06-16T12:31:56.795Z,27.22
2023-06-16T12:34:30.151Z,27.16
2023-06-16T12:37:07.643Z,26.91
2023-06-16T12:39:35.926Z,26.98
2023-06-16T12:42:06.700Z,27.19
2023-06-16T12:44:47.417Z,27.06
2023-06-16T12:47:16.438Z,27.25
2023-06-16T12:49:44.059Z,27.58
2023-06-16T12:52:13.321Z,27.48
2023-06-16T12:54:42.093Z,27.58
2023-06-16T12:57:10.556Z,27.71
2023-06-16T12:59:39.470Z,27.73
2023-06-16T13:02:07.250Z,27.50
2023-06-16T13:04:34.597Z,27.25
2023-06-16T13:07:01.942Z,27.20
2023-06-16T13:09:29.517Z,27.32
2023-06-16T13:11:58.685Z,27.24
2023-06-16T13:14:27.687Z,27.27
2023-06-16T13:16:56.765Z,26.92
2023-06-16T13:19:24.059Z,27.19
2023-06-16T13:21:51.301Z,27.15
2023-06-16T13:24:19.381Z,26.92
2023-06-16T13:26:46.809Z,26.93
2023-06-16T13:29:14.159Z,26.94
2023-06-16T13:31:41.368Z,27.13
2023-06-16T13:34:08.739Z,27.35
2023-06-16T13:36:36.091Z,27.18
2023-06-16T13:39:04.500Z,27.33
2023-06-16T13:41:32.069Z,27.54
2023-06-16T13:43:59.526Z,27.37
2023-06-16T13:46:26.883Z,27.56
2023-06-16T13:48:54.190Z,27.79
2023-06-16T13:51:21.535Z,27.55
2023-06-16T13:53:49.725Z,27.47
2023-06-16T13:56:16.996Z,27.77
2023-06-16T13:58:44.165Z,27.70
2023-06-16T14:01:11.429Z,27.46
2023-06-16T14:03:38.666Z,27.48
2023-06-16T14:06:05.986Z,27.48
2023-06-16T14:08:33.333Z,27.37
2023-06-16T14:11:02.458Z,27.54
2023-06-16T14:13:29.637Z,27.90
2023-06-16T14:15:56.990Z,28.13
2023-06-16T14:18:24.345Z,28.07
2023-06-16T14:20:51.809Z,28.07
2023-06-16T14:23:19.159Z,28.17
2023-06-16T14:25:46.827Z,28.08
2023-06-16T14:28:15.266Z,28.24
2023-06-16T14:30:42.917Z,28.23
2023-06-16T14:33:12.063Z,27.80
2023-06-16T14:35:40.153Z,27.63
2023-06-16T14:38:07.552Z,27.38
2023-06-16T14:40:36.700Z,27.49
2023-06-16T14:43:04.105Z,27.73
2023-06-16T14:45:31.685Z,27.97
2023-06-16T14:47:59.016Z,27.84
2023-06-16T14:50:26.300Z,28.07
2023-06-16T14:52:53.628Z,27.95
2023-06-16T14:55:21.129Z,27.89
2023-06-16T14:57:48.356Z,27.95
2023-06-16T15:00:15.988Z,27.93
2023-06-16T15:02:43.470Z,27.89
2023-06-16T15:05:10.784Z,27.60
2023-06-16T15:07:38.018Z,27.79
2023-06-16T15:10:05.646Z,27.96
2023-06-16T15:12:33.381Z,28.28
2023-06-16T15:15:00.926Z,27.90
2023-06-16T15:17:31.069Z,27.68
2023-06-16T15:19:58.303Z,27.85
2023-06-16T15:22:27.716Z,28.12
2023-06-16T15:24:54.904Z,28.33
2023-06-16T15:27:22.126Z,28.87
2023-06-16T15:29:49.319Z,30.29
2023-06-16T15:32:16.615Z,30.61
2023-06-16T15:34:43.894Z,30.51
2023-06-16T15:37:11.142Z,30.90
2023-06-16T15:39:38.341Z,31.59
2023-06-16T15:42:05.982Z,30.60
2023-06-16T15:44:33.772Z,30.46
2023-06-16T15:47:01.436Z,29.69
2023-06-16T15:49:28.674Z,29.98
2023-06-16T15:51:59.243Z,29.74
2023-06-16T15:54:26.570Z,29.92
2023-06-16T15:56:53.831Z,30.62
2023-06-16T15:59:21.080Z,31.21
2023-06-16T16:01:48.509Z,30.55
2023-06-16T16:04:16.170Z,30.35
2023-06-16T16:06:43.453Z,31.00
2023-06-16T16:09:11.246Z,30.36
2023-06-16T16:11:41.047Z,30.53
2023-06-16T16:14:09.161Z,30.54
2023-06-16T16:16:37.362Z,30.94
2023-06-16T16:19:04.780Z,30.40
2023-06-16T16:21:32.243Z,29.67
2023-06-16T16:23:59.526Z,29.68
2023-06-16T16:26:26.753Z,30.45
2023-06-16T16:28:54.032Z,29.85
2023-06-16T16:31:21.530Z,28.94
2023-06-16T16:33:48.884Z,28.03
2023-06-16T16:36:17.295Z,27.73
2023-06-16T16:38:44.567Z,27.63
2023-06-16T16:41:11.870Z,27.51
2023-06-16T16:43:39.130Z,27.70
2023-06-16T16:46:06.518Z,27.94
2023-06-16T16:48:33.808Z,28.34
2023-06-16T16:51:01.178Z,28.10
2023-06-16T16:53:46.824Z,27.55
2023-06-16T16:56:14.020Z,27.33
2023-06-16T16:58:41.294Z,27.30
2023-06-16T17:01:09.712Z,27.23
2023-06-16T17:03:37.411Z,27.17
2023-06-16T17:06:04.651Z,27.05
2023-06-16T17:08:31.930Z,26.97
2023-06-16T17:11:00.217Z,26.97
2023-06-16T17:13:27.365Z,26.89
2023-06-16T17:15:55.277Z,26.71
2023-06-16T17:18:22.695Z,26.74
2023-06-16T17:20:49.864Z,26.69
2023-06-16T17:23:17.054Z,26.73
2023-06-16T17:25:44.331Z,26.64
2023-06-16T17:28:11.631Z,26.65
2023-06-16T17:30:38.848Z,26.60
2023-06-16T17:33:06.049Z,26.54
2023-06-16T17:35:33.561Z,26.45
2023-06-16T17:38:03.072Z,26.38
2023-06-16T17:40:32.427Z,26.24
2023-06-16T17:43:02.010Z,26.32
2023-06-16T17:45:29.444Z,26.19
2023-06-16T17:47:56.896Z,26.15
2023-06-16T17:50:27.655Z,26.13
2023-06-16T17:52:55.132Z,26.08
2023-06-16T17:55:23.118Z,26.05
2023-06-16T17:57:50.421Z,25.96
2023-06-16T18:00:22.969Z,25.86
2023-06-16T18:02:50.694Z,25.85
2023-06-16T18:05:18.118Z,25.75
2023-06-16T18:07:45.667Z,25.76
2023-06-16T18:10:12.984Z,25.72
2023-06-16T18:12:40.315Z,25.62
2023-06-16T18:15:08.273Z,25.57
2023-06-16T18:17:36.321Z,25.52
2023-06-16T18:20:04.895Z,25.45
2023-06-16T18:22:36.152Z,25.46
2023-06-16T18:25:04.921Z,25.47
2023-06-16T18:27:35.666Z,25.42
2023-06-16T18:30:06.553Z,25.26
2023-06-16T18:32:37.575Z,25.23
2023-06-16T18:35:06.588Z,25.19
2023-06-16T18:37:45.077Z,25.19
2023-06-16T18:40:13.070Z,25.10
2023-06-16T18:42:40.839Z,25.07
2023-06-16T18:45:08.809Z,25.05
2023-06-16T18:47:37.287Z,24.98
2023-06-16T18:50:06.468Z,24.89
2023-06-16T18:52:34.645Z,24.83
2023-06-16T18:55:02.364Z,24.87
2023-06-16T18:57:38.504Z,24.71
2023-06-16T19:00:08.998Z,24.67
2023-06-16T19:02:36.948Z,24.61
2023-06-16T19:05:06.043Z,24.60
2023-06-16T19:07:36.631Z,24.60
2023-06-16T19:10:04.167Z,24.27
2023-06-16T19:12:33.055Z,24.41
2023-06-16T19:15:00.533Z,24.43
2023-06-16T19:17:27.893Z,24.42
2023-06-16T19:19:55.403Z,24.34
2023-06-16T19:22:22.719Z,24.30
2023-06-16T19:24:49.950Z,24.21
2023-06-16T19:27:17.210Z,24.11
2023-06-16T19:29:44.554Z,24.11
2023-06-16T19:32:11.804Z,24.00
2023-06-16T19:34:39.124Z,23.97
2023-06-16T19:37:06.889Z,24.05
2023-06-16T19:39:34.064Z,23.96
2023-06-16T19:42:01.239Z,23.90
2023-06-16T19:44:28.495Z,23.96
2023-06-16T19:46:55.848Z,23.85
2023-06-16T19:49:23.077Z,23.85
2023-06-16T19:51:51.176Z,23.77
2023-06-16T19:54:18.333Z,23.73
2023-06-16T19:56:45.495Z,23.72
2023-06-16T19:59:12.645Z,23.70
2023-06-16T20:01:40.226Z,23.71
2023-06-16T20:04:08.346Z,23.57
2023-06-16T20:06:35.902Z,23.57
2023-06-16T20:09:03.117Z,23.57
2023-06-16T20:11:30.264Z,23.58
2023-06-16T20:13:57.690Z,23.59
2023-06-16T20:16:26.531Z,23.53
2023-06-16T20:18:54.438Z,23.43
2023-06-16T20:21:22.098Z,23.47
2023-06-16T20:23:49.623Z,23.52
2023-06-16T20:26:17.827Z,23.54
2023-06-16T20:28:45.062Z,23.58
2023-06-16T20:31:12.501Z,23.61
2023-06-16T20:33:39.883Z,23.69
2023-06-16T20:36:08.438Z,23.61
2023-06-16T20:38:36.561Z,23.57
2023-06-16T20:41:04.967Z,23.52
2023-06-16T20:43:32.900Z,23.45
2023-06-16T20:46:01.055Z,23.42
2023-06-16T20:48:30.991Z,23.37
2023-06-16T20:50:58.516Z,23.37
2023-06-16T20:53:25.788Z,23.36
2023-06-16T20:55:53.155Z,23.34
2023-06-16T20:58:25.489Z,23.21
2023-06-16T21:00:56.256Z,23.15
2023-06-16T21:03:25.908Z,23.09
2023-06-16T21:05:53.690Z,23.16
2023-06-16T21:08:20.894Z,23.14
2023-06-16T21:10:48.075Z,23.08
2023-06-16T21:13:15.564Z,23.00
2023-06-16T21:15:45.455Z,22.93
2023-06-16T21:18:13.086Z,22.93
2023-06-16T21:20:40.369Z,22.87
2023-06-16T21:23:07.721Z,22.88
2023-06-16T21:25:34.928Z,22.85
2023-06-16T21:28:02.208Z,22.84
2023-06-16T21:30:29.404Z,22.86
2023-06-16T21:32:57.900Z,22.64
2023-06-16T21:35:26.291Z,22.59
2023-06-16T21:38:01.323Z,22.55
2023-06-16T21:40:29.894Z,22.50
2023-06-16T21:42:58.364Z,22.40
2023-06-16T21:45:25.848Z,22.23
2023-06-16T21:47:53.918Z,22.07
2023-06-16T21:50:21.307Z,22.07
2023-06-16T21:52:50.769Z,22.11
2023-06-16T21:55:18.107Z,22.15
2023-06-16T21:57:45.283Z,22.17
2023-06-16T22:00:13.258Z,22.24
2023-06-16T22:02:40.943Z,22.20
2023-06-16T22:05:10.639Z,22.30
2023-06-16T22:07:38.854Z,22.05
2023-06-16T22:10:07.772Z,22.03
2023-06-16T22:12:38.061Z,22.02
2023-06-16T22:15:06.241Z,21.67
2023-06-16T22:17:35.312Z,21.48
2023-06-16T22:20:05.831Z,21.58
2023-06-16T22:22:36.236Z,21.75
2023-06-16T22:25:03.678Z,21.83
2023-06-16T22:27:31.896Z,21.93
2023-06-16T22:30:00.496Z,21.95
2023-06-16T22:32:29.068Z,21.94
2023-06-16T22:34:56.481Z,21.99
2023-06-16T22:37:23.826Z,21.94
2023-06-16T22:39:52.331Z,21.73
2023-06-16T22:42:19.672Z,21.75
2023-06-16T22:44:47.058Z,21.76
2023-06-16T22:47:14.285Z,21.69
2023-06-16T22:49:41.646Z,21.52
2023-06-16T22:52:09.662Z,21.32
2023-06-16T22:54:37.293Z,21.27
2023-06-16T22:57:04.721Z,21.26
2023-06-16T22:59:32.008Z,21.14
2023-06-16T23:01:59.426Z,21.14
2023-06-16T23:04:26.669Z,21.07
2023-06-16T23:06:54.362Z,20.85
2023-06-16T23:09:21.633Z,20.80
2023-06-16T23:11:48.907Z,20.86
2023-06-16T23:14:16.249Z,21.10
2023-06-16T23:16:43.551Z,21.18
2023-06-16T23:19:12.604Z,21.29
2023-06-16T23:21:40.745Z,21.22
2023-06-16T23:24:08.034Z,21.12
2023-06-16T23:26:35.504Z,20.81
2023-06-16T23:29:06.063Z,20.79
2023-06-16T23:31:35.458Z,20.70
2023-06-16T23:34:04.273Z,20.79
2023-06-16T23:36:32.706Z,20.90
2023-06-16T23:39:01.945Z,20.93
2023-06-16T23:41:29.551Z,20.85
2023-06-16T23:44:01.402Z,20.98
2023-06-16T23:46:29.071Z,20.95
2023-06-16T23:48:56.614Z,21.01
2023-06-16T23:51:24.079Z,20.97
2023-06-16T23:53:51.803Z,20.95
2023-06-16T23:56:19.726Z,20.87
2023-06-16T23:58:47.474Z,20.86
